createdAt,value
2022-07-30T00:00:31.225Z,99.90
2022-07-30T00:02:59.333Z,99.90
2022-07-30T00:05:27.698Z,99.90
2022-07-30T00:07:55.777Z,99.90
2022-07-30T00:10:24.050Z,99.90
2022-07-30T00:12:52.751Z,99.90
2022-07-30T00:15:22.571Z,99.90
2022-07-30T00:17:50.654Z,99.90
2022-07-30T00:20:19.379Z,99.90
2022-07-30T00:22:47.918Z,99.90
2022-07-30T00:25:18.574Z,99.90
2022-07-30T00:27:49.831Z,99.90
2022-07-30T00:30:17.963Z,99.90
2022-07-30T00:32:47.861Z,99.90
2022-07-30T00:35:16.455Z,99.90
2022-07-30T00:37:46.255Z,99.90
2022-07-30T00:40:14.710Z,99.90
2022-07-30T00:42:45.933Z,99.90
2022-07-30T00:45:17.397Z,99.90
2022-07-30T00:47:47.181Z,99.90
2022-07-30T00:50:16.842Z,99.90
2022-07-30T00:52:46.161Z,99.90
2022-07-30T00:55:16.535Z,99.90
2022-07-30T00:57:44.719Z,99.90
2022-07-30T01:00:16.369Z,99.90
2022-07-30T01:02:44.907Z,99.90
2022-07-30T01:05:14.803Z,99.90
2022-07-30T01:07:43.460Z,99.90
2022-07-30T01:10:14.321Z,99.90
2022-07-30T01:12:43.926Z,99.90
2022-07-30T01:15:13.057Z,99.90
2022-07-30T01:17:41.499Z,99.90
2022-07-30T01:20:19.169Z,99.90
2022-07-30T01:23:09.416Z,99.90
2022-07-30T01:25:51.156Z,99.90
2022-07-30T01:28:24.544Z,99.90
2022-07-30T01:30:55.388Z,99.90
2022-07-30T01:33:26.548Z,99.90
2022-07-30T01:35:57.704Z,99.90
2022-07-30T01:38:31.158Z,99.90
2022-07-30T01:41:07.528Z,99.90
2022-07-30T01:43:37.902Z,99.90
2022-07-30T01:46:07.824Z,99.90
2022-07-30T01:48:41.579Z,99.90
2022-07-30T01:51:15.323Z,99.90
2022-07-30T01:53:46.439Z,99.90
2022-07-30T01:56:17.455Z,99.90
2022-07-30T01:58:55.132Z,99.90
2022-07-30T02:01:24.916Z,99.90
2022-07-30T02:03:54.369Z,99.90
2022-07-30T02:06:31.005Z,99.90
2022-07-30T02:09:10.570Z,99.90
2022-07-30T02:12:03.420Z,99.90
2022-07-30T02:14:42.240Z,99.90
2022-07-30T02:17:20.535Z,99.90
2022-07-30T02:19:55.242Z,99.90
2022-07-30T02:22:27.151Z,99.90
2022-07-30T02:24:57.991Z,99.90
2022-07-30T02:27:32.395Z,99.90
2022-07-30T02:30:03.723Z,99.90
2022-07-30T02:32:38.419Z,99.90
2022-07-30T02:35:15.017Z,99.90
2022-07-30T02:37:46.556Z,99.90
2022-07-30T02:40:20.498Z,99.90
2022-07-30T02:42:53.570Z,99.90
2022-07-30T02:45:25.126Z,99.90
2022-07-30T02:47:58.793Z,99.90
2022-07-30T02:50:32.822Z,99.90
2022-07-30T02:53:04.634Z,99.90
2022-07-30T02:55:36.147Z,99.90
2022-07-30T02:58:08.083Z,99.90
2022-07-30T03:00:38.121Z,99.90
2022-07-30T03:03:09.777Z,99.90
2022-07-30T03:05:39.766Z,99.90
2022-07-30T03:08:09.677Z,99.90
2022-07-30T03:10:40.781Z,99.90
2022-07-30T03:13:13.465Z,99.90
2022-07-30T03:15:48.924Z,99.90
2022-07-30T03:18:20.921Z,99.90
2022-07-30T03:20:54.384Z,99.90
2022-07-30T03:23:25.410Z,99.90
2022-07-30T03:25:58.543Z,99.90
2022-07-30T03:28:32.033Z,99.90
2022-07-30T03:31:00.955Z,99.90
2022-07-30T03:33:38.140Z,99.90
2022-07-30T03:36:09.031Z,99.90
2022-07-30T03:38:40.314Z,99.90
2022-07-30T03:41:09.729Z,99.90
2022-07-30T03:43:41.414Z,99.90
2022-07-30T03:46:12.925Z,99.90
2022-07-30T03:48:42.680Z,99.90
2022-07-30T03:51:11.610Z,99.90
2022-07-30T03:53:42.923Z,99.90
2022-07-30T03:56:12.259Z,99.90
2022-07-30T03:58:42.199Z,99.90
2022-07-30T04:01:10.490Z,99.90
2022-07-30T04:03:38.921Z,99.90
2022-07-30T04:06:07.427Z,99.90
2022-07-30T04:08:35.583Z,99.90
2022-07-30T04:11:03.682Z,99.90
2022-07-30T04:13:31.747Z,99.90
2022-07-30T04:16:39.827Z,99.90
2022-07-30T04:19:02.350Z,99.90
2022-07-30T04:21:34.616Z,99.90
2022-07-30T04:24:05.234Z,99.90
2022-07-30T04:26:36.940Z,99.90
2022-07-30T04:29:16.575Z,99.90
2022-07-30T04:31:49.109Z,99.90
2022-07-30T04:34:17.417Z,99.90
2022-07-30T04:36:45.925Z,99.90
2022-07-30T04:39:14.225Z,99.90
2022-07-30T04:41:48.549Z,99.90
2022-07-30T04:44:19.800Z,99.90
2022-07-30T04:46:49.591Z,99.90
2022-07-30T04:49:21.368Z,99.90
2022-07-30T04:51:51.973Z,99.90
2022-07-30T04:54:22.541Z,99.90
2022-07-30T04:56:53.802Z,99.90
2022-07-30T04:59:26.382Z,99.90
2022-07-30T05:01:59.990Z,99.90
2022-07-30T05:04:30.229Z,99.90
2022-07-30T05:06:59.449Z,99.90
2022-07-30T05:09:28.207Z,99.90
2022-07-30T05:11:57.712Z,99.90
2022-07-30T05:14:27.369Z,99.90
2022-07-30T05:16:57.158Z,99.90
2022-07-30T05:19:25.323Z,99.90
2022-07-30T05:21:53.528Z,99.90
2022-07-30T05:24:22.072Z,99.90
2022-07-30T05:26:50.386Z,99.90
2022-07-30T05:29:19.844Z,99.90
2022-07-30T05:31:49.103Z,99.90
2022-07-30T05:34:18.612Z,99.90
2022-07-30T05:36:47.187Z,99.90
2022-07-30T05:39:16.360Z,99.90
2022-07-30T05:41:44.598Z,99.90
2022-07-30T05:44:12.879Z,99.90
2022-07-30T05:46:41.535Z,99.20
2022-07-30T05:49:09.935Z,87.00
2022-07-30T05:51:39.894Z,82.30
2022-07-30T05:54:08.247Z,74.00
2022-07-30T05:56:37.689Z,70.50
2022-07-30T05:59:06.152Z,70.20
2022-07-30T06:01:34.415Z,68.20
2022-07-30T06:04:02.680Z,64.80
2022-07-30T06:06:30.937Z,62.00
2022-07-30T06:09:00.481Z,58.50
2022-07-30T06:11:28.640Z,54.90
2022-07-30T06:13:56.818Z,50.70
2022-07-30T06:16:25.008Z,51.10
2022-07-30T06:18:53.232Z,47.70
2022-07-30T06:21:21.315Z,42.30
2022-07-30T06:23:49.472Z,40.20
2022-07-30T06:26:18.999Z,38.70
2022-07-30T06:28:47.179Z,37.50
2022-07-30T06:31:16.075Z,34.80
2022-07-30T06:33:44.423Z,33.80
2022-07-30T06:36:13.993Z,32.40
2022-07-30T06:38:42.626Z,33.30
2022-07-30T06:41:11.171Z,32.50
2022-07-30T06:43:40.620Z,31.00
2022-07-30T06:46:08.870Z,29.00
2022-07-30T06:48:37.673Z,29.90
2022-07-30T06:51:06.214Z,29.00
2022-07-30T06:53:41.647Z,28.70
2022-07-30T06:56:11.027Z,28.30
2022-07-30T06:58:40.774Z,27.70
2022-07-30T07:01:10.968Z,28.00
2022-07-30T07:03:40.593Z,28.10
2022-07-30T07:06:09.559Z,27.90
2022-07-30T07:08:39.251Z,27.40
2022-07-30T07:11:07.425Z,26.70
2022-07-30T07:13:35.667Z,26.80
2022-07-30T07:16:05.968Z,26.70
2022-07-30T07:18:34.110Z,26.20
2022-07-30T07:21:02.156Z,25.00
2022-07-30T07:23:40.534Z,25.60
2022-07-30T07:26:12.274Z,26.10
2022-07-30T07:28:41.423Z,26.40
2022-07-30T07:31:11.551Z,26.20
2022-07-30T07:33:59.750Z,26.50
2022-07-30T07:36:28.438Z,26.40
2022-07-30T07:38:56.694Z,25.00
2022-07-30T07:41:24.873Z,24.20
2022-07-30T07:43:52.993Z,23.90
2022-07-30T07:46:33.489Z,23.00
2022-07-30T07:49:02.946Z,22.20
2022-07-30T07:51:47.418Z,22.60
2022-07-30T07:54:23.472Z,21.90
2022-07-30T07:56:52.947Z,21.60
2022-07-30T07:59:21.343Z,22.10
2022-07-30T08:01:52.496Z,21.80
2022-07-30T08:04:20.569Z,21.20
2022-07-30T08:06:48.627Z,21.70
2022-07-30T08:09:16.674Z,22.30
2022-07-30T08:11:44.686Z,22.30
2022-07-30T08:14:12.731Z,21.30
2022-07-30T08:16:40.900Z,20.70
2022-07-30T08:19:10.294Z,20.60
2022-07-30T08:21:38.345Z,20.40
2022-07-30T08:24:07.714Z,21.30
2022-07-30T08:26:35.755Z,20.90
2022-07-30T08:29:03.928Z,21.30
2022-07-30T08:31:31.966Z,20.40
2022-07-30T08:34:00.029Z,19.90
2022-07-30T08:36:29.462Z,20.10
2022-07-30T08:38:57.554Z,19.90
2022-07-30T08:41:27.112Z,18.70
2022-07-30T08:43:56.523Z,19.50
2022-07-30T08:46:29.148Z,18.30
2022-07-30T08:48:57.678Z,17.60
2022-07-30T08:51:26.330Z,17.10
2022-07-30T08:53:57.814Z,16.90
2022-07-30T08:56:26.323Z,16.60
2022-07-30T08:58:54.760Z,18.30
2022-07-30T09:01:24.045Z,19.90
2022-07-30T09:03:52.194Z,19.90
2022-07-30T09:06:20.578Z,19.10
2022-07-30T09:08:48.783Z,18.10
2022-07-30T09:11:18.241Z,17.40
2022-07-30T09:13:46.326Z,16.40
2022-07-30T09:16:23.514Z,17.00
2022-07-30T09:18:55.281Z,16.70
2022-07-30T09:21:26.681Z,16.70
2022-07-30T09:24:01.866Z,17.20
2022-07-30T09:26:32.959Z,16.60
2022-07-30T09:29:17.837Z,15.70
2022-07-30T09:31:59.851Z,15.00
2022-07-30T09:34:31.091Z,15.80
2022-07-30T09:37:02.322Z,15.70
2022-07-30T09:39:33.771Z,15.50
2022-07-30T09:42:05.622Z,15.20
2022-07-30T09:44:33.804Z,15.00
2022-07-30T09:47:02.867Z,14.10
2022-07-30T09:49:31.575Z,13.80
2022-07-30T09:52:00.147Z,13.40
2022-07-30T09:54:50.631Z,13.50
2022-07-30T09:57:26.010Z,14.50
2022-07-30T10:02:47.838Z,15.10
2022-07-30T10:05:19.282Z,14.80
2022-07-30T10:07:54.723Z,14.00
2022-07-30T10:10:26.214Z,14.40
2022-07-30T10:13:01.220Z,15.30
2022-07-30T10:15:36.281Z,14.80
2022-07-30T10:18:06.755Z,14.80
2022-07-30T10:20:39.111Z,14.00
2022-07-30T10:23:09.765Z,13.50
2022-07-30T10:25:49.247Z,13.40
2022-07-30T10:28:25.654Z,13.40
2022-07-30T10:30:55.903Z,13.00
2022-07-30T10:33:35.009Z,12.70
2022-07-30T10:36:06.414Z,12.80
2022-07-30T10:38:43.285Z,12.90
2022-07-30T10:41:43.523Z,13.70
2022-07-30T10:45:02.544Z,13.40
2022-07-30T10:47:40.499Z,13.20
2022-07-30T10:50:16.728Z,12.50
2022-07-30T10:52:54.133Z,12.80
2022-07-30T10:55:37.517Z,12.20
2022-07-30T10:58:10.501Z,11.40
2022-07-30T11:01:00.268Z,11.60
2022-07-30T11:03:40.537Z,12.70
2022-07-30T11:06:31.800Z,13.40
2022-07-30T11:08:59.923Z,13.10
2022-07-30T11:12:01.714Z,13.50
2022-07-30T11:15:07.393Z,13.30
2022-07-30T11:18:12.972Z,12.70
2022-07-30T11:20:43.316Z,12.40
2022-07-30T11:23:40.639Z,11.40
2022-07-30T11:26:14.239Z,11.60
2022-07-30T11:28:45.720Z,12.40
2022-07-30T11:31:54.519Z,12.30
2022-07-30T11:34:30.743Z,12.30
2022-07-30T11:37:18.479Z,13.40
2022-07-30T11:40:13.782Z,13.20
2022-07-30T11:42:43.687Z,12.90
2022-07-30T11:45:29.939Z,13.70
2022-07-30T11:48:01.167Z,13.30
2022-07-30T11:50:34.833Z,12.70
2022-07-30T11:53:06.628Z,12.60
2022-07-30T11:55:40.252Z,12.20
2022-07-30T11:58:11.040Z,12.10
2022-07-30T12:00:42.032Z,12.30
2022-07-30T12:03:13.144Z,12.90
2022-07-30T12:05:43.972Z,12.20
2022-07-30T12:08:32.794Z,12.40
2022-07-30T12:11:03.426Z,12.90
2022-07-30T12:13:44.017Z,12.90
2022-07-30T12:16:17.413Z,12.60
2022-07-30T12:18:46.949Z,12.50
2022-07-30T12:21:16.928Z,12.20
2022-07-30T12:23:56.159Z,12.40
2022-07-30T12:26:27.309Z,12.80
2022-07-30T12:28:57.144Z,12.70
2022-07-30T12:31:26.197Z,14.00
2022-07-30T12:33:56.279Z,15.10
2022-07-30T12:36:31.847Z,13.40
2022-07-30T12:39:01.623Z,13.30
2022-07-30T12:41:44.178Z,13.40
2022-07-30T12:44:32.601Z,12.40
2022-07-30T12:47:01.129Z,12.10
2022-07-30T12:49:39.306Z,11.60
2022-07-30T12:52:31.670Z,11.20
2022-07-30T12:55:02.841Z,11.40
2022-07-30T12:58:01.769Z,10.70
2022-07-30T13:00:48.189Z,11.70
2022-07-30T13:03:22.389Z,10.90
2022-07-30T13:05:55.233Z,10.80
2022-07-30T13:08:48.415Z,10.60
2022-07-30T13:11:17.593Z,11.20
2022-07-30T13:13:45.898Z,12.20
2022-07-30T13:16:15.302Z,12.80
2022-07-30T13:18:43.947Z,13.10
2022-07-30T13:21:12.524Z,13.60
2022-07-30T13:23:43.240Z,13.80
2022-07-30T13:26:12.307Z,13.00
2022-07-30T13:28:40.648Z,12.10
2022-07-30T13:31:09.809Z,12.40
2022-07-30T13:33:39.535Z,11.90
2022-07-30T13:36:09.146Z,11.90
2022-07-30T13:38:37.409Z,12.20
2022-07-30T13:41:07.212Z,12.10
2022-07-30T13:43:35.815Z,12.60
2022-07-30T13:46:05.074Z,12.70
2022-07-30T13:48:35.788Z,12.10
2022-07-30T13:51:05.752Z,12.60
2022-07-30T13:53:34.195Z,13.30
2022-07-30T13:56:03.483Z,12.60
2022-07-30T13:58:36.011Z,13.10
2022-07-30T14:01:06.928Z,13.80
2022-07-30T14:03:35.642Z,14.10
2022-07-30T14:06:11.083Z,13.50
2022-07-30T14:08:39.778Z,12.50
2022-07-30T14:11:08.215Z,12.90
2022-07-30T14:13:37.943Z,13.60
2022-07-30T14:16:18.104Z,13.30
2022-07-30T14:18:55.561Z,13.00
2022-07-30T14:21:23.672Z,13.50
2022-07-30T14:23:51.726Z,13.00
2022-07-30T14:26:19.885Z,13.00
2022-07-30T14:28:49.361Z,12.90
2022-07-30T14:31:17.800Z,12.60
2022-07-30T14:33:45.884Z,12.80
2022-07-30T14:36:14.261Z,13.10
2022-07-30T14:38:42.731Z,13.10
2022-07-30T14:41:10.882Z,13.90
2022-07-30T14:43:39.005Z,13.40
2022-07-30T14:46:08.398Z,13.70
2022-07-30T14:48:36.539Z,14.30
2022-07-30T14:51:19.498Z,15.10
2022-07-30T14:53:50.692Z,15.30
2022-07-30T14:56:19.454Z,15.30
2022-07-30T14:58:47.543Z,14.90
2022-07-30T15:01:17.335Z,14.50
2022-07-30T15:03:45.644Z,14.80
2022-07-30T15:06:15.433Z,14.80
2022-07-30T15:08:46.104Z,14.80
2022-07-30T15:11:14.623Z,14.80
2022-07-30T15:13:50.338Z,15.10
2022-07-30T15:16:20.694Z,15.60
2022-07-30T15:18:48.793Z,15.40
2022-07-30T15:21:17.183Z,15.50
2022-07-30T15:23:45.428Z,14.70
2022-07-30T15:26:13.688Z,14.70
2022-07-30T15:28:42.020Z,13.90
2022-07-30T15:31:10.079Z,13.70
2022-07-30T15:33:42.958Z,13.60
2022-07-30T15:36:11.932Z,14.30
2022-07-30T15:38:40.744Z,13.70
2022-07-30T15:41:13.332Z,13.50
2022-07-30T15:43:43.110Z,14.00
2022-07-30T15:46:11.400Z,13.70
2022-07-30T15:48:40.866Z,13.40
2022-07-30T15:51:09.387Z,14.20
2022-07-30T15:53:37.510Z,15.40
2022-07-30T15:56:06.559Z,16.80
2022-07-30T15:58:36.150Z,17.70
2022-07-30T16:01:06.192Z,18.10
2022-07-30T16:03:34.279Z,17.80
2022-07-30T16:06:03.814Z,18.00
2022-07-30T16:08:31.889Z,17.60
2022-07-30T16:11:03.745Z,17.00
2022-07-30T16:13:31.925Z,17.30
2022-07-30T16:16:00.231Z,17.40
2022-07-30T16:18:28.350Z,17.20
2022-07-30T16:20:58.769Z,17.10
2022-07-30T16:23:28.493Z,17.10
2022-07-30T16:26:05.658Z,17.10
2022-07-30T16:28:35.159Z,18.00
2022-07-30T16:31:03.589Z,18.50
2022-07-30T16:33:31.835Z,17.90
2022-07-30T16:35:59.895Z,18.40
2022-07-30T16:38:29.307Z,19.10
2022-07-30T16:40:57.615Z,19.40
2022-07-30T16:43:25.899Z,19.30
2022-07-30T16:45:54.724Z,19.90
2022-07-30T16:48:22.806Z,20.20
2022-07-30T16:50:50.977Z,20.60
2022-07-30T16:53:19.171Z,21.50
2022-07-30T16:55:49.192Z,21.20
2022-07-30T16:58:17.928Z,20.70
2022-07-30T17:00:49.642Z,20.00
2022-07-30T17:03:20.031Z,20.10
2022-07-30T17:05:48.694Z,19.60
2022-07-30T17:08:17.700Z,19.40
2022-07-30T17:10:47.707Z,19.50
2022-07-30T17:13:17.728Z,19.50
2022-07-30T17:15:46.873Z,20.10
2022-07-30T17:18:15.302Z,20.90
2022-07-30T17:20:43.732Z,21.00
2022-07-30T17:23:11.866Z,21.50
2022-07-30T17:25:40.170Z,21.50
2022-07-30T17:28:08.273Z,21.90
2022-07-30T17:30:37.754Z,22.10
2022-07-30T17:33:06.411Z,22.60
2022-07-30T17:35:34.802Z,22.70
2022-07-30T17:38:02.939Z,23.20
2022-07-30T17:40:31.978Z,23.20
2022-07-30T17:43:04.638Z,23.50
2022-07-30T17:45:34.600Z,23.50
2022-07-30T17:48:05.223Z,23.50
2022-07-30T17:50:35.603Z,23.80
2022-07-30T17:53:05.857Z,23.70
2022-07-30T17:55:35.332Z,23.70
2022-07-30T17:58:03.923Z,23.10
2022-07-30T18:00:32.399Z,22.60
2022-07-30T18:03:00.563Z,22.80
2022-07-30T18:05:30.563Z,23.20
2022-07-30T18:07:58.667Z,23.30
2022-07-30T18:10:26.899Z,23.80
2022-07-30T18:12:54.950Z,23.70
2022-07-30T18:15:23.635Z,24.40
2022-07-30T18:17:51.803Z,25.00
2022-07-30T18:20:20.000Z,25.20
2022-07-30T18:22:51.584Z,25.40
2022-07-30T18:25:19.974Z,25.70
2022-07-30T18:27:48.834Z,26.10
2022-07-30T18:30:17.212Z,26.20
2022-07-30T18:32:46.244Z,26.40
2022-07-30T18:35:15.336Z,26.70
2022-07-30T18:37:44.980Z,26.60
2022-07-30T18:40:23.741Z,27.30
2022-07-30T18:42:52.456Z,27.20
2022-07-30T18:45:20.819Z,27.10
2022-07-30T18:47:49.132Z,27.70
2022-07-30T18:50:18.808Z,27.50
2022-07-30T18:52:47.029Z,27.70
2022-07-30T18:55:18.125Z,27.50
2022-07-30T18:57:46.520Z,27.70
2022-07-30T19:00:35.118Z,28.00
2022-07-30T19:03:04.527Z,28.20
2022-07-30T19:05:32.774Z,28.70
2022-07-30T19:08:00.820Z,29.20
2022-07-30T19:10:30.260Z,29.40
2022-07-30T19:12:58.710Z,30.40
2022-07-30T19:15:28.351Z,30.40
2022-07-30T19:17:56.945Z,30.60
2022-07-30T19:20:26.529Z,31.20
2022-07-30T19:23:03.043Z,32.40
2022-07-30T19:25:34.660Z,32.60
2022-07-30T19:28:05.540Z,33.60
2022-07-30T19:30:35.452Z,34.30
2022-07-30T19:33:05.933Z,34.00
2022-07-30T19:35:34.513Z,34.20
2022-07-30T19:38:02.791Z,34.10
2022-07-30T19:40:32.611Z,35.20
2022-07-30T19:43:06.451Z,36.50
2022-07-30T19:45:46.649Z,37.70
2022-07-30T19:48:15.368Z,38.20
2022-07-30T19:50:58.712Z,39.20
2022-07-30T19:53:27.915Z,40.10
2022-07-30T19:56:04.559Z,41.30
2022-07-30T19:58:40.211Z,42.30
2022-07-30T20:01:08.918Z,43.50
2022-07-30T20:03:38.894Z,44.80
2022-07-30T20:06:07.708Z,46.10
2022-07-30T20:08:36.652Z,47.30
2022-07-30T20:11:08.343Z,48.00
2022-07-30T20:13:44.050Z,48.70
2022-07-30T20:16:14.870Z,48.90
2022-07-30T20:18:46.158Z,49.70
2022-07-30T20:21:16.335Z,49.20
2022-07-30T20:23:45.561Z,52.50
2022-07-30T20:26:16.257Z,53.20
2022-07-30T20:28:52.519Z,53.20
2022-07-30T20:31:21.460Z,57.20
2022-07-30T20:33:50.849Z,56.70
2022-07-30T20:36:19.272Z,57.80
2022-07-30T20:38:47.828Z,59.10
2022-07-30T20:41:19.000Z,62.50
2022-07-30T20:43:52.089Z,64.20
2022-07-30T20:46:23.678Z,65.80
2022-07-30T20:48:52.865Z,67.80
2022-07-30T20:51:21.728Z,69.80
2022-07-30T20:54:02.042Z,72.60
2022-07-30T20:56:31.596Z,75.50
2022-07-30T20:58:59.734Z,78.30
2022-07-30T21:01:30.724Z,79.20
2022-07-30T21:03:59.107Z,80.30
2022-07-30T21:06:27.227Z,83.50
2022-07-30T21:08:56.558Z,86.20
2022-07-30T21:11:25.093Z,89.10
2022-07-30T21:13:55.181Z,90.00
2022-07-30T21:16:23.688Z,90.60
2022-07-30T21:18:51.927Z,91.20
2022-07-30T21:21:30.815Z,91.80
2022-07-30T21:24:12.146Z,90.40
2022-07-30T21:26:41.441Z,90.30
2022-07-30T21:29:11.741Z,91.60
2022-07-30T21:32:01.942Z,92.40
2022-07-30T21:34:30.920Z,94.20
2022-07-30T21:37:03.613Z,95.30
2022-07-30T21:39:31.735Z,93.80
2022-07-30T21:42:08.847Z,93.90
2022-07-30T21:44:39.363Z,94.00
2022-07-30T21:47:10.370Z,94.50
2022-07-30T21:49:39.564Z,96.50
2022-07-30T21:52:09.097Z,94.10
2022-07-30T21:54:48.086Z,93.80
2022-07-30T21:57:26.455Z,96.40
2022-07-30T21:59:56.633Z,94.90
2022-07-30T22:02:25.409Z,94.10
2022-07-30T22:04:56.364Z,96.00
2022-07-30T22:07:27.215Z,99.10
2022-07-30T22:09:55.306Z,99.90
2022-07-30T22:12:28.868Z,99.90
2022-07-30T22:14:59.187Z,99.90
2022-07-30T22:17:37.243Z,99.90
2022-07-30T22:20:19.619Z,99.90
2022-07-30T22:22:47.904Z,99.90
2022-07-30T22:25:16.779Z,99.90
2022-07-30T22:27:56.298Z,99.90
2022-07-30T22:30:30.502Z,99.90
2022-07-30T22:33:10.112Z,99.90
2022-07-30T22:35:39.113Z,99.90
2022-07-30T22:38:07.177Z,99.90
2022-07-30T22:40:37.421Z,99.90
2022-07-30T22:43:08.982Z,99.90
2022-07-30T22:45:48.653Z,99.90
2022-07-30T22:48:26.101Z,99.90
2022-07-30T22:50:55.627Z,99.90
2022-07-30T22:54:11.477Z,99.90
2022-07-30T22:56:14.329Z,99.90
2022-07-30T22:58:44.441Z,99.90
2022-07-30T23:01:15.978Z,99.90
2022-07-30T23:03:44.016Z,99.90
2022-07-30T23:06:14.371Z,99.90
2022-07-30T23:08:42.959Z,99.90
2022-07-30T23:11:11.088Z,99.90
2022-07-30T23:13:40.198Z,99.90
2022-07-30T23:16:08.337Z,99.90
2022-07-30T23:18:37.805Z,99.90
2022-07-30T23:21:05.860Z,99.90
2022-07-30T23:23:35.624Z,99.90
2022-07-30T23:26:04.702Z,99.90
2022-07-30T23:28:33.027Z,99.90
2022-07-30T23:31:01.363Z,99.90
2022-07-30T23:33:29.495Z,99.90
2022-07-30T23:36:00.170Z,99.90
2022-07-30T23:38:28.786Z,99.90
2022-07-30T23:41:01.278Z,99.90
2022-07-30T23:43:29.921Z,99.90
2022-07-30T23:45:58.506Z,99.90
2022-07-30T23:48:26.655Z,99.90
2022-07-30T23:50:55.158Z,99.90
2022-07-30T23:53:24.713Z,99.90
2022-07-30T23:55:53.361Z,99.90
2022-07-30T23:58:21.535Z,99.90
